Time;durP1;ratioP1;P1;durP2;ratioP2;P2;SDS_P1;SDS_P2;PMS_P1;PMS_P2;Temp;Humidity;BMP_temperature;BMP_pressure;BME280_temperature;BME280_humidity;BME280_pressure;Samples;Min_cycle;Max_cycle;Signal;HPM_P1;HPM_P2
2022/06/27 00:01:50;;;;;;;24.85;15.95;;;;;;;30.47;66.88;100929.75;5069835;28;65962;-33
2022/06/27 00:04:21;;;;;;;23.40;16.07;;;;;;;30.46;67.71;100928.13;5072067;28;69300;-32
2022/06/27 00:06:52;;;;;;;22.92;15.82;;;;;;;30.54;68.34;100930.56;5078674;28;66210;-34
2022/06/27 00:09:23;;;;;;;30.20;17.05;;;;;;;30.49;69.90;100933.91;5079579;28;70043;-35
2022/06/27 00:11:55;;;;;;;22.17;15.73;;;;;;;30.54;69.50;100936.00;5078232;28;67299;-34
2022/06/27 00:14:27;;;;;;;17.92;15.10;;;;;;;30.48;70.73;100936.84;5082474;28;70069;-34
2022/06/27 00:16:57;;;;;;;;;;;;;;;30.25;72.27;100951.72;5078137;28;66655;-34
2022/06/27 00:19:28;;;;;;;32.03;16.70;;;;;;;30.59;69.59;100938.88;5062508;28;70102;-35
2022/06/27 00:22:00;;;;;;;28.40;16.15;;;;;;;30.67;70.37;100940.47;5078733;27;64959;-36
2022/06/27 00:24:32;;;;;;;24.83;15.52;;;;;;;30.73;69.65;100940.47;5074673;27;70118;-36
2022/06/27 00:27:03;;;;;;;22.83;15.27;;;;;;;30.75;69.80;100942.09;5054987;28;65178;-37
2022/06/27 00:29:34;;;;;;;20.95;15.00;;;;;;;30.78;68.80;100937.06;5050001;28;70008;-35
2022/06/27 00:32:06;;;;;;;24.00;15.38;;;;;;;30.78;68.99;100949.78;5055422;28;65480;-34
2022/06/27 00:34:38;;;;;;;20.98;14.73;;;;;;;30.84;69.29;100952.50;5076058;28;69339;-35
2022/06/27 00:37:09;;;;;;;22.95;14.32;;;;;;;30.81;68.97;100930.41;5079875;27;65832;-36
2022/06/27 00:39:40;;;;;;;16.25;13.88;;;;;;;30.94;69.24;100952.00;5073814;28;70119;-36
2022/06/27 00:42:11;;;;;;;18.98;13.52;;;;;;;31.06;66.02;100944.00;5076476;27;65917;-37
2022/06/27 00:44:44;;;;;;;17.80;11.63;;;;;;;30.79;65.79;100881.88;5045343;28;69488;-37
2022/06/27 00:47:15;;;;;;;14.30;11.95;;;;;;;31.26;65.05;100943.84;5065180;28;66674;-35
2022/06/27 00:49:46;;;;;;;13.13;10.45;;;;;;;31.30;65.16;100942.34;5072972;28;69689;-35
2022/06/27 00:52:18;;;;;;;11.48;10.43;;;;;;;31.38;64.82;100931.25;5057306;28;66303;-37
2022/06/27 00:54:49;;;;;;;13.38;10.93;;;;;;;31.40;64.54;100915.63;5062729;28;70146;-36
2022/06/27 00:57:20;;;;;;;13.57;10.98;;;;;;;31.50;63.93;100917.81;5069191;28;66236;-36
2022/06/27 00:59:51;;;;;;;11.88;10.57;;;;;;;31.54;64.17;100929.88;5074081;28;70932;-36
2022/06/27 01:02:22;;;;;;;13.30;11.05;;;;;;;31.59;63.89;100933.56;5055135;28;67325;-35
2022/06/27 01:04:53;;;;;;;13.65;11.48;;;;;;;31.56;63.55;100917.72;5056870;28;70316;-36
2022/06/27 01:07:24;;;;;;;16.30;11.50;;;;;;;31.65;63.52;100921.00;5070203;28;68247;-37
2022/06/27 01:09:57;;;;;;;13.65;10.93;;;;;;;31.68;63.08;100909.69;5053257;28;70671;-38
2022/06/27 01:12:29;;;;;;;14.10;10.32;;;;;;;31.78;63.03;100920.00;5073602;28;65506;-37
2022/06/27 01:15:01;;;;;;;13.90;10.50;;;;;;;31.80;63.26;100926.03;5057000;28;69706;-36
2022/06/27 01:17:33;;;;;;;;;;;;;;;31.49;64.36;100922.41;5073570;28;65609;-37
2022/06/27 01:20:05;;;;;;;10.60;9.60;;;;;;;31.84;62.38;100913.66;5059546;28;70526;-37
2022/06/27 01:22:36;;;;;;;12.45;9.38;;;;;;;31.89;62.63;100904.88;5069766;28;66628;-37
2022/06/27 01:25:13;;;;;;;14.90;9.68;;;;;;;31.95;62.18;100915.66;5055526;28;69913;-36
2022/06/27 01:27:45;;;;;;;10.02;8.70;;;;;;;31.95;62.18;100904.81;5079322;27;66065;-35
2022/06/27 01:30:21;;;;;;;10.75;9.70;;;;;;;32.01;61.84;100903.91;5058033;28;70117;-36
2022/06/27 01:32:54;;;;;;;13.30;8.48;;;;;;;32.02;61.93;100897.44;5062094;28;66355;-36
2022/06/27 01:35:25;;;;;;;10.73;9.65;;;;;;;32.05;61.91;100905.09;5059780;28;69149;-36
2022/06/27 01:37:56;;;;;;;9.77;8.70;;;;;;;32.09;61.78;100904.66;5045601;28;66062;-36
2022/06/27 01:40:28;;;;;;;9.77;8.77;;;;;;;32.11;61.54;100905.25;5061722;28;70115;-35
2022/06/27 01:43:00;;;;;;;9.82;8.82;;;;;;;32.13;61.67;100900.44;5076209;28;66152;-36
2022/06/27 01:45:32;;;;;;;9.50;8.60;;;;;;;32.18;61.39;100911.41;5077750;28;70236;-35
2022/06/27 01:48:04;;;;;;;8.57;7.88;;;;;;;32.20;61.51;100896.56;5063460;28;66333;-38
2022/06/27 01:50:35;;;;;;;9.02;8.30;;;;;;;32.20;61.49;100891.13;5072651;28;69986;-36
2022/06/27 01:53:08;;;;;;;8.65;7.97;;;;;;;32.24;61.53;100896.94;5076996;28;65748;-36
2022/06/27 01:55:39;;;;;;;8.73;8.00;;;;;;;32.17;61.18;100877.19;5062656;28;69253;-34
2022/06/27 01:58:11;;;;;;;8.38;7.57;;;;;;;32.25;61.18;100885.84;5062329;28;65709;-37
2022/06/27 02:00:45;;;;;;;9.05;7.50;;;;;;;32.32;60.91;100887.63;5074629;28;70461;-37
2022/06/27 02:03:18;;;;;;;8.87;8.03;;;;;;;32.29;60.87;100888.94;5037099;28;66233;-37
2022/06/27 02:05:49;;;;;;;14.02;8.00;;;;;;;32.35;61.13;100888.03;5060484;28;70169;-36
2022/06/27 02:08:25;;;;;;;8.90;7.47;;;;;;;32.40;60.63;100890.03;5064109;28;65313;-36
2022/06/27 02:10:57;;;;;;;8.50;7.65;;;;;;;32.38;60.72;100884.84;5057093;28;69926;-37
2022/06/27 02:13:30;;;;;;;9.55;7.93;;;;;;;32.41;60.72;100886.28;5043846;28;66292;-36
2022/06/27 02:16:11;;;;;;;8.68;7.60;;;;;;;32.41;60.76;100897.97;5029909;28;70121;-36
2022/06/27 02:18:43;;;;;;;7.68;7.07;;;;;;;32.45;60.56;100888.28;5052236;28;65714;-36
2022/06/27 02:21:22;;;;;;;7.15;6.55;;;;;;;32.51;60.37;100885.72;5056011;28;69331;-35
2022/06/27 02:23:55;;;;;;;7.57;6.97;;;;;;;32.54;60.27;100890.69;5057590;28;66237;-37
2022/06/27 02:26:29;;;;;;;7.65;6.88;;;;;;;32.44;60.13;100862.19;5047652;28;70751;-35
2022/06/27 02:29:01;;;;;;;7.82;6.20;;;;;;;32.49;60.36;100867.81;5045570;28;66273;-37
2022/06/27 02:31:34;;;;;;;8.23;7.32;;;;;;;32.59;59.86;100871.81;5066134;28;69945;-36
2022/06/27 02:34:07;;;;;;;8.57;7.60;;;;;;;32.63;59.83;100873.03;5067796;28;65835;-36
2022/06/27 02:36:44;;;;;;;6.97;6.45;;;;;;;32.66;59.66;100872.56;5067366;28;70353;-36
2022/06/27 02:39:29;;;;;;;7.85;7.18;;;;;;;32.63;59.79;100878.47;5061701;28;66232;-35
2022/06/27 02:42:03;;;;;;;7.38;6.75;;;;;;;32.71;59.69;100875.41;5077661;28;69777;-36
2022/06/27 02:44:34;;;;;;;7.60;6.93;;;;;;;32.62;59.38;100852.34;5078374;28;65488;-36
2022/06/27 02:47:06;;;;;;;6.60;6.10;;;;;;;32.74;59.65;100872.22;5061084;28;69849;-36
2022/06/27 02:49:39;;;;;;;7.05;6.55;;;;;;;32.78;59.33;100865.25;5071595;28;65923;-36
2022/06/27 02:52:24;;;;;;;6.80;6.30;;;;;;;32.48;59.37;100814.56;5060118;28;69757;-37
2022/06/27 02:55:11;;;;;;;6.78;6.38;;;;;;;32.57;59.16;100819.63;5059416;28;66332;-37
2022/06/27 02:58:09;;;;;;;6.32;5.82;;;;;;;32.41;59.21;100792.06;5042404;28;70152;-35
2022/06/27 03:00:41;;;;;;;7.25;6.75;;;;;;;32.56;59.17;100801.69;5063858;28;66670;-36
2022/06/27 03:03:17;;;;;;;7.30;6.60;;;;;;;32.91;58.79;100851.47;5052514;28;70583;-37
2022/06/27 03:06:00;;;;;;;9.20;6.10;;;;;;;32.93;58.70;100853.94;5057008;28;43657;-36
2022/06/27 03:08:46;;;;;;;6.78;6.07;;;;;;;32.92;58.66;100850.38;5053061;28;71226;-37
2022/06/27 03:11:20;;;;;;;6.15;5.65;;;;;;;32.98;58.99;100839.66;5059845;28;66656;-39
2022/06/27 03:13:53;;;;;;;7.00;6.43;;;;;;;32.98;58.70;100828.78;5049302;28;70143;-37
2022/06/27 03:16:24;;;;;;;7.78;5.95;;;;;;;32.96;58.70;100814.59;5047052;28;66333;-36
2022/06/27 03:18:56;;;;;;;6.43;5.80;;;;;;;32.72;58.68;100768.41;5065812;28;69783;-36
2022/06/27 03:21:33;;;;;;;7.40;5.85;;;;;;;32.79;58.60;100774.56;5074323;28;66418;-36
2022/06/27 03:24:05;;;;;;;6.13;5.68;;;;;;;33.07;58.94;100817.38;5061391;28;69525;-36
2022/06/27 03:26:36;;;;;;;8.47;6.10;;;;;;;33.08;58.65;100810.03;5052577;28;66348;-36
2022/06/27 03:29:09;;;;;;;6.82;5.70;;;;;;;33.11;58.61;100813.09;5061320;28;69959;-37
2022/06/27 03:31:42;;;;;;;6.30;5.72;;;;;;;33.15;58.43;100816.16;5050980;28;66767;-37
2022/06/27 03:34:15;;;;;;;6.10;5.70;;;;;;;33.15;58.35;100817.00;5055254;28;69429;-37
2022/06/27 03:37:03;;;;;;;5.63;5.25;;;;;;;33.17;58.46;100808.59;5053624;28;66571;-36
2022/06/27 03:39:34;;;;;;;5.65;5.25;;;;;;;33.15;58.43;100811.56;5078074;28;70256;-36
2022/06/27 03:42:05;;;;;;;5.75;5.35;;;;;;;33.08;58.19;100789.09;5050411;28;65785;-36
2022/06/27 03:44:36;;;;;;;6.17;5.57;;;;;;;33.16;58.33;100806.94;5058342;28;70047;-36
2022/06/27 03:47:07;;;;;;;7.70;5.33;;;;;;;33.17;58.42;100803.16;5076156;28;66549;-37
2022/06/27 03:50:08;;;;;;;9.73;5.82;;;;;;;33.19;58.33;100790.16;5060417;28;69601;-36
2022/06/27 03:52:40;;;;;;;6.43;5.75;;;;;;;33.22;58.22;100789.69;5063263;28;66454;-36
2022/06/27 03:55:16;;;;;;;5.53;5.10;;;;;;;33.25;58.09;100786.50;5059730;28;70236;-36
2022/06/27 03:57:50;;;;;;;7.82;6.00;;;;;;;33.28;58.36;100783.28;5059717;28;66951;-36
2022/06/27 04:00:31;;;;;;;5.72;5.10;;;;;;;33.29;57.94;100784.97;5059224;28;70447;-36
2022/06/27 04:03:05;;;;;;;5.80;5.22;;;;;;;33.30;58.19;100781.16;5044429;28;66285;-36
2022/06/27 04:05:41;;;;;;;5.68;5.18;;;;;;;33.32;58.04;100784.47;5036005;28;69562;-35
2022/06/27 04:08:13;;;;;;;5.80;5.30;;;;;;;33.31;57.77;100771.94;5051186;28;66412;-37
2022/06/27 04:10:45;;;;;;;6.95;5.10;;;;;;;33.09;58.06;100741.00;5057374;28;69959;-37
2022/06/27 04:13:21;;;;;;;5.70;5.05;;;;;;;33.30;58.18;100753.97;5063990;28;66472;-36
2022/06/27 04:16:10;;;;;;;5.20;4.80;;;;;;;33.33;58.16;100758.94;5076691;28;69920;-37
2022/06/27 04:18:59;;;;;;;6.03;4.60;;;;;;;33.20;57.97;100732.00;5075962;28;66380;-37
2022/06/27 04:21:59;;;;;;;5.88;4.63;;;;;;;33.37;58.00;100754.66;5054357;28;69382;-36
2022/06/27 04:24:49;;;;;;;6.45;5.07;;;;;;;33.41;57.73;100759.63;5065162;28;66567;-36
2022/06/27 04:27:29;;;;;;;5.55;5.10;;;;;;;33.42;57.74;100758.56;5046009;28;70504;-37
2022/06/27 04:30:00;;;;;;;7.63;4.90;;;;;;;33.42;57.97;100753.94;5058230;28;65686;-36
2022/06/27 04:32:33;;;;;;;5.40;5.00;;;;;;;33.43;57.96;100743.88;5061752;28;69561;-36
2022/06/27 04:35:04;;;;;;;5.47;4.97;;;;;;;33.47;57.74;100736.91;5060577;28;67537;-37
2022/06/27 04:37:41;;;;;;;5.38;4.97;;;;;;;33.48;57.67;100733.94;5064020;28;70386;-35
2022/06/27 04:40:30;;;;;;;5.75;4.53;;;;;;;33.50;58.00;100729.09;5082303;28;66279;-37
2022/06/27 04:43:08;;;;;;;4.93;4.63;;;;;;;33.52;57.52;100723.41;5064006;28;70858;-36
2022/06/27 04:45:39;;;;;;;5.50;5.10;;;;;;;33.49;57.50;100718.44;5077384;28;66312;-36
2022/06/27 04:48:26;;;;;;;5.70;4.93;;;;;;;33.53;57.56;100716.94;5070772;28;69484;-36
2022/06/27 04:50:59;;;;;;;5.15;4.75;;;;;;;33.53;57.69;100722.38;5056367;28;66163;-37
2022/06/27 04:53:30;;;;;;;4.93;4.55;;;;;;;33.52;57.53;100707.09;5062598;28;69992;-36
2022/06/27 04:56:01;;;;;;;5.00;4.70;;;;;;;33.56;57.53;100708.28;5059639;28;67531;-37
2022/06/27 04:58:34;;;;;;;5.03;4.70;;;;;;;33.57;57.58;100699.91;5059485;28;70526;-36
2022/06/27 05:01:05;;;;;;;5.90;4.67;;;;;;;33.48;57.58;100689.59;5051792;28;67791;-36
2022/06/27 05:03:42;;;;;;;4.93;4.53;;;;;;;33.54;57.67;100683.22;5067826;28;70252;-36
2022/06/27 05:06:20;;;;;;;6.28;4.85;;;;;;;33.59;57.45;100683.31;5054940;28;65503;-36
2022/06/27 05:08:51;;;;;;;4.85;4.55;;;;;;;33.54;57.44;100666.91;5060947;28;69020;-36
2022/06/27 05:11:23;;;;;;;4.50;4.20;;;;;;;33.61;57.39;100673.03;5052607;28;66572;-36
2022/06/27 05:13:53;;;;;;;;;;;;;;;33.28;58.24;100669.09;5063233;28;69298;-38
2022/06/27 05:16:44;;;;;;;4.82;4.43;;;;;;;33.56;57.44;100659.34;5066183;28;65499;-38
2022/06/27 05:19:16;;;;;;;5.70;4.03;;;;;;;33.57;57.23;100660.97;5047244;28;69200;-38
2022/06/27 05:21:48;;;;;;;4.85;4.43;;;;;;;33.53;57.00;100651.66;5061676;28;65530;-36
2022/06/27 05:24:20;;;;;;;5.00;4.55;;;;;;;33.70;57.34;100677.00;5045027;28;69288;-37
2022/06/27 05:26:53;;;;;;;4.87;4.37;;;;;;;33.71;57.23;100670.50;5064204;28;66218;-37
2022/06/27 05:29:24;;;;;;;4.63;4.30;;;;;;;33.74;57.40;100661.84;5071260;28;69636;-37
2022/06/27 05:31:56;;;;;;;4.70;4.30;;;;;;;33.73;57.38;100649.31;5058104;28;66110;-38
2022/06/27 05:34:34;;;;;;;4.85;4.55;;;;;;;33.76;57.19;100643.38;5054953;28;70359;-38
2022/06/27 05:37:05;;;;;;;4.93;4.43;;;;;;;33.81;56.81;100643.47;5063417;28;66843;-38
2022/06/27 05:39:37;;;;;;;4.15;3.85;;;;;;;33.86;57.14;100633.75;5061596;28;69207;-37
2022/06/27 05:42:08;;;;;;;5.13;4.47;;;;;;;33.90;57.00;100634.88;5062760;28;66203;-37
2022/06/27 05:44:40;;;;;;;5.17;4.77;;;;;;;33.94;56.93;100633.34;5062333;28;69986;-37
2022/06/27 05:47:12;;;;;;;4.63;4.25;;;;;;;33.98;56.85;100629.03;5058356;28;66023;-37
2022/06/27 05:50:09;;;;;;;5.03;4.65;;;;;;;34.01;56.90;100620.38;5060939;28;70215;-36
2022/06/27 05:52:41;;;;;;;5.00;4.60;;;;;;;34.02;56.79;100616.59;5059425;28;66454;-37
2022/06/27 05:55:13;;;;;;;4.15;3.75;;;;;;;33.97;56.82;100600.19;5080417;28;69426;-37
2022/06/27 05:57:44;;;;;;;5.03;4.57;;;;;;;34.07;56.85;100611.25;5061632;28;66450;-36
2022/06/27 06:00:17;;;;;;;4.38;4.07;;;;;;;34.08;57.25;100610.19;5077898;28;70485;-37
2022/06/27 06:02:48;;;;;;;4.53;4.10;;;;;;;34.07;57.01;100604.97;5048929;28;66316;-37
2022/06/27 06:05:22;;;;;;;4.05;3.75;;;;;;;34.12;56.83;100603.16;5045553;28;69727;-37
2022/06/27 06:07:59;;;;;;;5.07;4.68;;;;;;;34.13;56.90;100603.97;5058344;28;66504;-36
2022/06/27 06:10:33;;;;;;;5.88;4.47;;;;;;;34.08;56.46;100587.59;5052213;28;69361;-38
2022/06/27 06:13:04;;;;;;;4.75;4.28;;;;;;;34.15;56.73;100589.03;5051800;28;65499;-37
2022/06/27 06:15:38;;;;;;;5.90;4.20;;;;;;;34.15;56.61;100588.22;5068090;28;70730;-36
2022/06/27 06:18:09;;;;;;;4.30;4.00;;;;;;;34.18;56.67;100582.28;5055939;28;66106;-36
2022/06/27 06:20:46;;;;;;;4.35;4.05;;;;;;;34.18;56.43;100585.81;5059883;28;70185;-38
2022/06/27 06:23:17;;;;;;;4.50;4.10;;;;;;;34.22;56.55;100581.53;5056908;28;66184;-41
2022/06/27 06:25:49;;;;;;;4.10;3.80;;;;;;;34.19;56.67;100554.81;5062644;28;70059;-36
2022/06/27 06:28:20;;;;;;;4.20;3.80;;;;;;;34.24;56.62;100563.06;5057264;28;65990;-37
2022/06/27 06:30:52;;;;;;;5.00;4.60;;;;;;;34.26;56.73;100560.91;5059673;28;70286;-37
2022/06/27 06:33:24;;;;;;;4.18;3.90;;;;;;;34.26;56.54;100563.63;5046966;28;66000;-37
2022/06/27 06:35:56;;;;;;;7.15;4.40;;;;;;;34.29;56.47;100558.75;5062805;28;70432;-36
2022/06/27 06:38:27;;;;;;;4.80;4.33;;;;;;;34.30;56.70;100563.97;5063327;28;65598;-37
2022/06/27 06:40:58;;;;;;;6.80;3.70;;;;;;;34.28;56.45;100557.94;5079519;28;70353;-35
2022/06/27 06:43:29;;;;;;;4.28;3.88;;;;;;;34.26;56.47;100544.56;5066190;28;66192;-36
2022/06/27 06:46:15;;;;;;;3.83;3.60;;;;;;;34.34;56.48;100542.50;5060671;28;70504;-37
2022/06/27 06:49:02;;;;;;;4.00;3.80;;;;;;;34.31;56.24;100534.84;5062000;28;66540;-37
2022/06/27 06:51:35;;;;;;;4.25;3.88;;;;;;;34.35;56.27;100542.25;5072980;28;70860;-37
2022/06/27 06:54:07;;;;;;;4.05;3.75;;;;;;;34.36;56.08;100532.19;5061593;28;65806;-36
2022/06/27 06:56:38;;;;;;;4.18;3.88;;;;;;;34.33;56.28;100519.06;5074650;28;69747;-37
2022/06/27 06:59:09;;;;;;;6.30;3.55;;;;;;;34.34;56.47;100518.81;5075353;28;66387;-37
2022/06/27 07:01:41;;;;;;;6.97;3.67;;;;;;;34.34;56.51;100515.25;5065623;28;70121;-36
2022/06/27 07:04:14;;;;;;;4.70;3.63;;;;;;;34.37;56.01;100514.75;5068030;28;66398;-36
2022/06/27 07:06:45;;;;;;;4.28;3.70;;;;;;;34.37;56.30;100503.88;5076405;28;69580;-36
2022/06/27 07:09:16;;;;;;;3.67;3.37;;;;;;;34.34;56.33;100499.75;5066121;28;65470;-37
2022/06/27 07:11:47;;;;;;;4.28;3.97;;;;;;;34.34;56.16;100497.03;5070892;28;69718;-36
2022/06/27 07:14:19;;;;;;;4.17;3.87;;;;;;;34.33;56.06;100483.69;5068495;28;66183;-37
2022/06/27 07:16:50;;;;;;;6.20;3.88;;;;;;;34.36;56.05;100481.25;5063732;28;70113;-36
2022/06/27 07:19:21;;;;;;;6.18;3.78;;;;;;;34.34;56.27;100482.59;5067386;28;66005;-36
2022/06/27 07:21:52;;;;;;;4.10;3.80;;;;;;;34.26;56.33;100471.06;5075148;28;70108;-37
2022/06/27 07:24:23;;;;;;;4.37;3.97;;;;;;;34.34;56.28;100482.59;5061596;28;66602;-37
2022/06/27 07:26:55;;;;;;;3.90;3.60;;;;;;;34.33;56.57;100467.34;5059664;28;70055;-37
2022/06/27 07:29:30;;;;;;;4.18;3.88;;;;;;;34.33;56.16;100467.34;5075607;28;66610;-37
2022/06/27 07:32:04;;;;;;;3.80;3.60;;;;;;;34.35;56.48;100468.75;5079055;28;70528;-36
2022/06/27 07:34:36;;;;;;;6.38;3.60;;;;;;;34.36;56.38;100466.84;5074966;28;66138;-38
2022/06/27 07:37:07;;;;;;;4.35;4.05;;;;;;;34.36;56.30;100466.84;5071294;28;70475;-39
2022/06/27 07:39:38;;;;;;;4.10;3.80;;;;;;;34.34;56.41;100453.47;5059805;28;67640;-37
2022/06/27 07:42:09;;;;;;;4.80;3.70;;;;;;;34.31;56.21;100459.41;5072490;28;69500;-36
2022/06/27 07:44:41;;;;;;;5.22;3.80;;;;;;;34.31;56.56;100458.59;5077317;28;65056;-38
2022/06/27 07:47:13;;;;;;;3.92;3.63;;;;;;;34.34;56.39;100453.47;5071199;28;70583;-36
2022/06/27 07:49:44;;;;;;;3.90;3.50;;;;;;;34.23;56.69;100425.28;5050788;28;65650;-42
2022/06/27 07:52:28;;;;;;;3.60;3.40;;;;;;;34.35;56.65;100443.38;5039342;28;69083;-38
2022/06/27 07:55:00;;;;;;;3.80;3.50;;;;;;;34.26;56.59;100424.78;5061665;28;64987;-39
2022/06/27 07:57:31;;;;;;;3.55;3.25;;;;;;;34.29;56.75;100438.97;5068610;28;69984;-37
2022/06/27 08:00:04;;;;;;;6.00;3.40;;;;;;;34.34;56.32;100433.59;5069325;28;66275;-37
2022/06/27 08:02:40;;;;;;;5.93;3.95;;;;;;;34.30;57.02;100430.56;5073114;28;69571;-37
2022/06/27 08:05:11;;;;;;;3.83;3.53;;;;;;;34.26;56.67;100429.41;5077620;28;66715;-37
2022/06/27 08:07:42;;;;;;;4.22;3.92;;;;;;;34.25;56.77;100434.03;5075472;28;69894;-35
2022/06/27 08:10:13;;;;;;;3.97;3.67;;;;;;;34.26;57.22;100441.09;5068283;28;65230;-36
2022/06/27 08:12:45;;;;;;;4.80;4.40;;;;;;;34.24;57.06;100448.72;5072636;28;70115;-36
2022/06/27 08:15:16;;;;;;;5.35;3.80;;;;;;;34.24;57.03;100459.63;5066522;28;66321;-37
2022/06/27 08:17:53;;;;;;;3.42;3.22;;;;;;;34.23;57.25;100452.50;5068728;28;70066;-38
2022/06/27 08:20:25;;;;;;;3.78;3.45;;;;;;;34.17;57.25;100437.19;5075290;28;66388;-36
2022/06/27 08:22:56;;;;;;;4.20;3.80;;;;;;;34.23;57.44;100446.25;5076004;28;69895;-37
2022/06/27 08:25:27;;;;;;;3.80;3.60;;;;;;;34.21;57.38;100448.38;5078760;27;66174;-37
2022/06/27 08:27:59;;;;;;;8.88;3.97;;;;;;;34.19;57.36;100440.50;5071799;28;69125;-36
2022/06/27 08:30:30;;;;;;;4.57;4.13;;;;;;;34.15;57.47;100428.44;5056297;28;66007;-37
2022/06/27 08:33:01;;;;;;;4.82;4.10;;;;;;;34.16;58.57;100424.66;5065813;28;70253;-37
2022/06/27 08:35:33;;;;;;;7.38;4.63;;;;;;;34.14;59.02;100410.47;5069445;28;65086;-38
2022/06/27 08:38:05;;;;;;;5.95;4.10;;;;;;;34.11;59.07;100386.50;5058070;28;69895;-37
2022/06/27 08:40:36;;;;;;;4.37;3.97;;;;;;;34.13;59.08;100389.78;5070433;28;65816;-36
2022/06/27 08:43:12;;;;;;;5.07;4.07;;;;;;;33.87;59.20;100355.16;5069010;28;68660;-37
2022/06/27 08:45:47;;;;;;;4.32;3.92;;;;;;;34.02;59.15;100385.28;5065977;28;67098;-38
2022/06/27 08:48:19;;;;;;;4.40;4.10;;;;;;;34.13;59.13;100427.06;5068639;28;69751;-36
2022/06/27 08:50:52;;;;;;;3.70;3.50;;;;;;;34.12;58.82;100423.50;5073358;28;65399;-37
2022/06/27 08:53:25;;;;;;;5.75;3.70;;;;;;;34.08;59.35;100416.94;5065458;28;70067;-36
2022/06/27 08:55:55;;;;;;;3.72;3.53;;;;;;;34.09;59.15;100420.50;5076363;28;66426;-37
2022/06/27 08:58:29;;;;;;;4.00;3.70;;;;;;;34.06;59.05;100404.66;5079344;28;69919;-38
2022/06/27 09:01:00;;;;;;;3.95;3.70;;;;;;;34.00;59.12;100388.25;5078624;28;66180;-37
2022/06/27 09:03:35;;;;;;;3.77;3.50;;;;;;;34.02;59.26;100385.28;5080128;27;69869;-37
2022/06/27 09:06:10;;;;;;;3.72;3.42;;;;;;;34.02;59.50;100385.28;5079520;28;66097;-37
2022/06/27 09:09:03;;;;;;;3.80;3.42;;;;;;;33.88;59.64;100373.09;5063412;28;69974;-37
2022/06/27 09:11:41;;;;;;;3.97;3.70;;;;;;;33.67;59.94;100332.06;5077390;28;66081;-37
2022/06/27 09:14:43;;;;;;;5.13;3.90;;;;;;;33.74;59.80;100364.50;5061694;28;68938;-37
2022/06/27 09:17:15;;;;;;;3.92;3.63;;;;;;;33.84;59.32;100361.09;5076253;28;66720;-36
2022/06/27 09:19:57;;;;;;;3.92;3.63;;;;;;;33.54;59.91;100318.81;5068140;28;70400;-36
2022/06/27 09:22:32;;;;;;;4.70;4.30;;;;;;;33.78;60.02;100339.25;5080339;28;65155;-36
2022/06/27 09:25:15;;;;;;;4.53;4.13;;;;;;;33.75;60.16;100337.06;5059331;28;69795;-37
2022/06/27 09:27:50;;;;;;;4.95;4.55;;;;;;;33.74;59.92;100338.13;5071080;28;65434;-36
2022/06/27 09:30:24;;;;;;;4.72;4.07;;;;;;;33.73;60.02;100339.19;5048387;28;70104;-37
2022/06/27 09:33:00;;;;;;;5.15;4.75;;;;;;;33.49;59.70;100305.13;5062443;28;66771;-35
2022/06/27 09:35:36;;;;;;;4.50;4.10;;;;;;;33.60;60.24;100334.16;5062990;28;70423;-36
2022/06/27 09:38:09;;;;;;;4.20;3.90;;;;;;;33.67;59.92;100340.22;5061059;28;66287;-37
2022/06/27 09:40:41;;;;;;;4.60;4.20;;;;;;;33.70;59.94;100345.16;5054063;28;70267;-36
2022/06/27 09:43:16;;;;;;;7.15;4.35;;;;;;;33.69;59.94;100338.06;5068857;28;66295;-38
2022/06/27 09:45:50;;;;;;;6.05;4.68;;;;;;;33.66;60.12;100338.56;5051727;28;69899;-36
2022/06/27 09:48:23;;;;;;;4.03;3.72;;;;;;;33.67;60.00;100345.66;5059783;28;65254;-37
2022/06/27 09:50:54;;;;;;;4.18;3.80;;;;;;;33.67;59.86;100359.25;5064304;28;70103;-37
2022/06/27 09:53:27;;;;;;;5.15;4.18;;;;;;;33.64;60.03;100358.94;5063766;28;65633;-36
2022/06/27 09:56:00;;;;;;;3.85;3.55;;;;;;;33.42;60.14;100337.13;5076043;28;70151;-37
2022/06/27 09:58:33;;;;;;;4.20;3.90;;;;;;;33.62;59.73;100370.06;5064622;28;65406;-37
2022/06/27 10:01:24;;;;;;;4.75;4.35;;;;;;;33.62;60.15;100380.13;5064311;28;70162;-36
2022/06/27 10:03:57;;;;;;;3.90;3.60;;;;;;;33.57;60.39;100379.00;5063355;28;68170;-37
2022/06/27 10:06:31;;;;;;;5.10;4.70;;;;;;;33.61;60.28;100382.03;5048329;28;69721;-37
2022/06/27 10:09:04;;;;;;;4.30;4.00;;;;;;;33.58;60.33;100390.69;5068616;28;66523;-37
2022/06/27 10:11:38;;;;;;;7.82;5.10;;;;;;;33.61;60.19;100401.06;5066649;28;69918;-37
2022/06/27 10:14:22;;;;;;;4.72;4.32;;;;;;;33.52;60.66;100394.38;5062235;28;65182;-36
2022/06/27 10:16:57;;;;;;;4.82;4.53;;;;;;;33.57;60.42;100383.56;5064759;28;70059;-37
2022/06/27 10:19:30;;;;;;;4.97;4.57;;;;;;;33.28;60.57;100340.19;5037170;28;65133;-37
2022/06/27 10:22:00;;;;;;;5.03;4.63;;;;;;;33.57;60.60;100391.75;5060755;28;69205;-37
2022/06/27 10:24:33;;;;;;;4.97;4.57;;;;;;;33.52;60.90;100407.97;5075479;28;66435;-36
2022/06/27 10:27:06;;;;;;;4.75;4.35;;;;;;;33.56;60.40;100420.03;5065148;28;70554;-36
2022/06/27 10:29:44;;;;;;;5.53;5.03;;;;;;;33.49;60.61;100411.16;5066390;28;66194;-39
2022/06/27 10:32:43;;;;;;;4.75;4.45;;;;;;;33.42;60.96;100413.25;5078080;28;71666;-37
2022/06/27 10:35:15;;;;;;;5.45;4.95;;;;;;;33.35;62.63;100422.41;5073911;28;66317;-38
2022/06/27 10:37:47;;;;;;;6.63;4.90;;;;;;;33.26;64.29;100420.34;5076993;28;70170;-39
2022/06/27 10:40:20;;;;;;;6.78;6.05;;;;;;;33.13;64.66;100426.94;5076203;28;65972;-38
2022/06/27 10:42:55;;;;;;;9.35;7.13;;;;;;;33.00;64.91;100427.25;5076372;28;70457;-37
2022/06/27 10:45:27;;;;;;;6.78;6.38;;;;;;;32.93;64.91;100428.22;5068994;28;66260;-37
2022/06/27 10:48:01;;;;;;;6.55;5.95;;;;;;;32.86;65.01;100427.53;5057321;28;69045;-38
2022/06/27 10:50:42;;;;;;;6.82;6.28;;;;;;;32.45;65.38;100377.88;5065050;28;65900;-38
2022/06/27 10:53:19;;;;;;;8.80;6.55;;;;;;;32.73;65.53;100422.41;5063118;28;70056;-37
2022/06/27 10:55:50;;;;;;;16.27;8.57;;;;;;;32.72;65.49;100423.47;5065448;28;65845;-39
2022/06/27 10:58:40;;;;;;;9.53;8.57;;;;;;;32.56;66.87;100416.13;5066106;28;70025;-40
2022/06/27 11:01:15;;;;;;;14.25;7.90;;;;;;;32.33;67.26;100358.09;5071390;28;66295;-39
2022/06/27 11:03:46;;;;;;;9.45;8.30;;;;;;;32.66;67.37;100406.25;5053055;28;69891;-40
2022/06/27 11:06:18;;;;;;;9.50;7.33;;;;;;;32.79;66.04;100417.88;5072165;28;66235;-38
2022/06/27 11:08:52;;;;;;;7.63;6.95;;;;;;;32.91;65.49;100433.06;5070910;28;69949;-39
2022/06/27 11:11:26;;;;;;;7.85;7.03;;;;;;;32.93;65.20;100424.66;5065513;28;66454;-38
2022/06/27 11:13:59;;;;;;;10.23;7.53;;;;;;;33.09;64.78;100448.34;5064852;28;70829;-39
2022/06/27 11:16:32;;;;;;;9.73;6.70;;;;;;;33.16;64.51;100440.03;5072840;28;65562;-37
2022/06/27 11:20:04;;;;;;;8.45;6.75;;;;;;;33.23;64.33;100459.69;5049430;28;69893;-38
2022/06/27 11:22:00;;;;;;;7.32;6.75;;;;;;;33.27;64.18;100470.94;5075290;28;66201;-38
2022/06/27 11:24:33;;;;;;;7.85;7.15;;;;;;;33.28;64.57;100467.94;5078265;28;70263;-37
2022/06/27 11:27:04;;;;;;;7.97;7.25;;;;;;;33.31;64.34;100478.31;5055472;28;65999;-38
2022/06/27 11:32:25;;;;;;;7.88;7.13;;;;;;;33.37;64.43;100477.34;5057753;28;65662;-39
2022/06/27 11:34:56;;;;;;;8.45;7.65;;;;;;;33.42;64.47;100467.63;5057385;28;70235;-38
2022/06/27 11:37:30;;;;;;;9.38;8.15;;;;;;;33.43;64.31;100477.41;5072860;28;65303;-38
2022/06/27 11:40:07;;;;;;;9.38;7.57;;;;;;;33.21;64.84;100437.41;5057710;28;70388;-39
2022/06/27 11:42:42;;;;;;;8.68;7.88;;;;;;;33.08;64.87;100415.97;5057761;28;65558;-39
2022/06/27 11:45:16;;;;;;;8.55;7.78;;;;;;;33.47;64.60;100475.88;5076285;28;70263;-38
2022/06/27 11:47:47;;;;;;;9.75;8.95;;;;;;;33.27;66.77;100487.25;5076836;28;65693;-38
2022/06/27 11:50:20;;;;;;;10.13;9.27;;;;;;;33.15;68.00;100490.84;5076147;28;69186;-37
2022/06/27 11:52:53;;;;;;;9.48;8.75;;;;;;;32.74;68.21;100439.53;5060873;28;66055;-38
2022/06/27 11:55:25;;;;;;;11.57;9.55;;;;;;;32.74;68.62;100461.28;5057690;28;70560;-37
2022/06/27 11:57:59;;;;;;;10.55;9.27;;;;;;;32.63;69.37;100463.78;5075026;28;66199;-38
2022/06/27 12:00:33;;;;;;;10.38;9.45;;;;;;;32.57;69.72;100455.75;5076409;27;69999;-38